createdAt,value
2024-03-09T00:00:45.273Z,89.93
2024-03-09T00:03:13.480Z,102.57
2024-03-09T00:05:41.213Z,93.83
2024-03-09T00:08:10.183Z,95.70
2024-03-09T00:10:37.605Z,93.97
2024-03-09T00:13:05.119Z,89.30
2024-03-09T00:15:32.804Z,93.27
2024-03-09T00:18:00.498Z,93.67
2024-03-09T00:20:38.064Z,94.50
2024-03-09T00:23:09.587Z,94.93
2024-03-09T00:25:39.324Z,99.97
2024-03-09T00:28:07.117Z,105.10
2024-03-09T00:30:36.394Z,113.73
2024-03-09T00:33:07.904Z,156.97
2024-03-09T00:35:36.299Z,174.53
2024-03-09T00:38:06.080Z,113.10
2024-03-09T00:40:33.628Z,102.67
2024-03-09T00:43:05.707Z,94.43
2024-03-09T00:45:33.164Z,131.13
2024-03-09T00:48:00.225Z,88.27
2024-03-09T00:50:28.547Z,85.63
2024-03-09T00:52:56.232Z,121.30
2024-03-09T00:55:24.312Z,97.23
2024-03-09T00:57:52.717Z,107.90
2024-03-09T01:00:25.689Z,98.03
2024-03-09T01:02:53.588Z,90.27
2024-03-09T01:05:24.599Z,92.13
2024-03-09T01:07:53.046Z,96.93
2024-03-09T01:10:20.763Z,108.57
2024-03-09T01:12:49.655Z,118.57
2024-03-09T01:15:17.229Z,100.40
2024-03-09T01:17:44.356Z,94.93
2024-03-09T01:20:11.980Z,99.27
2024-03-09T01:22:43.025Z,87.80
2024-03-09T01:25:10.066Z,108.57
2024-03-09T01:27:38.897Z,103.00
2024-03-09T01:30:10.699Z,87.53
2024-03-09T01:32:41.556Z,101.03
2024-03-09T01:35:10.818Z,109.70
2024-03-09T01:37:38.203Z,92.60
2024-03-09T01:40:06.873Z,96.00
2024-03-09T01:42:34.257Z,99.37
2024-03-09T01:45:05.589Z,96.67
2024-03-09T01:47:33.730Z,145.93
2024-03-09T01:50:01.190Z,110.90
2024-03-09T01:52:33.401Z,143.30
2024-03-09T01:55:04.394Z,99.33
2024-03-09T01:57:31.419Z,99.33
2024-03-09T01:59:58.405Z,113.70
2024-03-09T02:02:25.911Z,93.90
2024-03-09T02:04:53.296Z,90.07
2024-03-09T02:07:23.117Z,89.33
2024-03-09T02:09:50.108Z,91.53
2024-03-09T02:12:21.189Z,93.33
2024-03-09T02:14:49.667Z,89.33
2024-03-09T02:17:16.960Z,96.67
2024-03-09T02:19:44.201Z,100.07
2024-03-09T02:22:14.334Z,88.30
2024-03-09T02:24:42.870Z,109.93
2024-03-09T02:27:11.254Z,108.53
2024-03-09T02:29:41.249Z,112.83
2024-03-09T02:32:08.913Z,98.07
2024-03-09T02:34:36.602Z,95.17
2024-03-09T02:37:04.914Z,105.17
2024-03-09T02:39:32.448Z,103.57
2024-03-09T02:42:00.337Z,120.80
2024-03-09T02:44:28.460Z,132.37
2024-03-09T02:46:56.024Z,142.43
2024-03-09T02:49:28.221Z,134.63
2024-03-09T02:51:55.432Z,133.93
2024-03-09T02:54:24.465Z,119.70
2024-03-09T02:56:51.563Z,124.73
2024-03-09T02:59:18.505Z,114.30
2024-03-09T03:01:48.286Z,117.07
2024-03-09T03:04:16.575Z,120.97
2024-03-09T03:06:44.981Z,176.37
2024-03-09T03:09:13.639Z,151.13
2024-03-09T03:11:44.573Z,139.97
2024-03-09T03:14:12.482Z,116.37
2024-03-09T03:16:44.158Z,114.73
2024-03-09T03:19:11.205Z,112.20
2024-03-09T03:21:42.013Z,118.30
2024-03-09T03:24:14.092Z,125.53
2024-03-09T03:26:41.188Z,111.83
2024-03-09T03:29:09.120Z,112.37
2024-03-09T03:31:39.464Z,117.23
2024-03-09T03:34:07.135Z,117.33
2024-03-09T03:36:39.192Z,111.53
2024-03-09T03:39:12.575Z,122.23
2024-03-09T03:41:39.895Z,128.17
2024-03-09T03:44:06.874Z,112.40
2024-03-09T03:46:33.973Z,122.33
2024-03-09T03:49:02.867Z,116.60
2024-03-09T03:51:29.783Z,127.13
2024-03-09T03:53:58.303Z,119.23
2024-03-09T03:56:25.898Z,116.10
2024-03-09T03:58:53.190Z,106.87
2024-03-09T04:01:20.371Z,106.33
2024-03-09T04:03:48.707Z,113.03
2024-03-09T04:06:15.663Z,100.37
2024-03-09T04:08:42.834Z,102.50
2024-03-09T04:11:09.942Z,113.47
2024-03-09T04:13:36.865Z,105.87
2024-03-09T04:16:05.152Z,113.43
2024-03-09T04:18:33.190Z,114.10
2024-03-09T04:21:03.166Z,110.97
2024-03-09T04:23:30.446Z,109.83
2024-03-09T04:25:57.668Z,114.20
2024-03-09T04:28:29.276Z,107.80
2024-03-09T04:30:58.255Z,114.40
2024-03-09T04:33:25.917Z,121.90
2024-03-09T04:35:54.614Z,125.27
2024-03-09T04:38:22.405Z,128.73
2024-03-09T04:40:52.785Z,116.33
2024-03-09T04:43:20.293Z,122.23
2024-03-09T04:45:47.771Z,144.50
2024-03-09T04:48:15.952Z,171.27
2024-03-09T04:50:48.833Z,136.73
2024-03-09T04:53:18.153Z,127.20
2024-03-09T04:55:49.975Z,124.47
2024-03-09T04:58:23.080Z,140.30
2024-03-09T05:00:50.063Z,134.07
2024-03-09T05:03:19.174Z,133.07
2024-03-09T05:05:46.225Z,125.80
2024-03-09T05:08:13.864Z,115.00
2024-03-09T05:10:41.386Z,126.50
2024-03-09T05:13:09.572Z,120.37
2024-03-09T05:15:37.672Z,118.60
2024-03-09T05:18:12.643Z,114.47
2024-03-09T05:20:40.858Z,119.40
2024-03-09T05:23:14.932Z,116.57
2024-03-09T05:25:44.171Z,111.30
2024-03-09T05:28:14.899Z,113.23
2024-03-09T05:30:43.715Z,111.20
2024-03-09T05:33:11.206Z,114.47
2024-03-09T05:35:39.357Z,123.40
2024-03-09T05:38:07.208Z,133.50
2024-03-09T05:40:36.172Z,119.17
2024-03-09T05:43:08.771Z,109.33
2024-03-09T05:45:37.468Z,116.70
2024-03-09T05:48:05.341Z,114.63
2024-03-09T05:50:33.522Z,112.70
2024-03-09T05:53:06.632Z,124.57
2024-03-09T05:55:33.931Z,136.53
2024-03-09T05:58:01.248Z,151.17
2024-03-09T06:00:31.345Z,118.17
2024-03-09T06:03:03.818Z,126.33
2024-03-09T06:05:35.107Z,131.63
2024-03-09T06:08:03.839Z,134.43
2024-03-09T06:10:31.592Z,113.37
2024-03-09T06:12:58.784Z,134.40
2024-03-09T06:15:27.166Z,123.47
2024-03-09T06:18:07.103Z,120.70
2024-03-09T06:20:36.070Z,117.03
2024-03-09T06:23:03.548Z,141.80
2024-03-09T06:25:31.517Z,111.17
2024-03-09T06:28:03.893Z,116.03
2024-03-09T06:30:34.359Z,118.93
2024-03-09T06:33:03.323Z,119.07
2024-03-09T06:35:32.400Z,101.80
2024-03-09T06:38:02.118Z,97.90
2024-03-09T06:40:34.432Z,114.23
2024-03-09T06:43:02.967Z,113.97
2024-03-09T06:45:31.059Z,119.83
2024-03-09T06:48:00.898Z,109.67
2024-03-09T06:50:45.737Z,122.17
2024-03-09T06:53:13.620Z,106.70
2024-03-09T06:55:41.003Z,104.10
2024-03-09T06:58:08.194Z,101.70
2024-03-09T07:00:37.175Z,113.20
2024-03-09T07:03:06.945Z,129.27
2024-03-09T07:05:40.873Z,107.23
2024-03-09T07:08:11.551Z,114.17
2024-03-09T07:10:39.067Z,101.53
2024-03-09T07:13:06.694Z,102.20
2024-03-09T07:15:34.157Z,119.87
2024-03-09T07:18:02.239Z,89.50
2024-03-09T07:20:30.413Z,82.90
2024-03-09T07:22:57.971Z,83.10
2024-03-09T07:25:27.456Z,87.00
2024-03-09T07:27:57.142Z,86.77
2024-03-09T07:30:35.471Z,90.77
2024-03-09T07:33:03.563Z,96.17
2024-03-09T07:35:31.769Z,74.97
2024-03-09T07:38:00.984Z,67.47
2024-03-09T07:40:42.430Z,74.33
2024-03-09T07:43:15.349Z,71.57
2024-03-09T07:45:42.543Z,74.60
2024-03-09T07:48:09.851Z,88.97
2024-03-09T07:50:37.014Z,84.07
2024-03-09T07:53:07.642Z,85.47
2024-03-09T07:55:35.730Z,79.40
2024-03-09T08:00:36.911Z,60.87
2024-03-09T08:03:04.381Z,52.40
2024-03-09T08:05:31.654Z,50.80
2024-03-09T08:08:05.129Z,52.30
2024-03-09T08:10:35.344Z,61.97
2024-03-09T08:13:03.164Z,48.80
2024-03-09T08:15:30.791Z,56.67
2024-03-09T08:17:58.354Z,50.03
2024-03-09T08:20:25.770Z,45.60
2024-03-09T08:22:54.355Z,36.13
2024-03-09T08:25:21.997Z,37.57
2024-03-09T08:27:55.826Z,35.27
2024-03-09T08:30:23.263Z,30.33
2024-03-09T08:32:55.175Z,33.10
2024-03-09T08:35:23.526Z,31.47
2024-03-09T08:37:52.444Z,28.93
2024-03-09T08:40:22.095Z,31.87
2024-03-09T08:42:53.139Z,34.03
2024-03-09T08:45:30.923Z,30.93
2024-03-09T08:47:58.293Z,30.93
2024-03-09T08:50:36.410Z,25.73
2024-03-09T08:53:03.611Z,29.83
2024-03-09T08:55:31.003Z,25.47
2024-03-09T08:57:57.984Z,22.60
2024-03-09T09:00:27.988Z,36.07
2024-03-09T09:02:58.385Z,28.07
2024-03-09T09:05:28.923Z,25.33
2024-03-09T09:07:57.028Z,28.17
2024-03-09T09:10:26.818Z,26.47
2024-03-09T09:12:55.524Z,36.67
2024-03-09T09:15:24.481Z,20.07
2024-03-09T09:17:51.615Z,21.23
2024-03-09T09:20:21.538Z,24.23
2024-03-09T09:22:49.439Z,25.23
2024-03-09T09:25:29.967Z,22.37
2024-03-09T09:28:03.861Z,23.77
2024-03-09T09:30:31.112Z,19.60
2024-03-09T09:32:58.709Z,19.33
2024-03-09T09:35:26.198Z,20.63
2024-03-09T09:37:54.601Z,16.97
2024-03-09T09:40:25.083Z,16.90
2024-03-09T09:43:01.463Z,16.07
2024-03-09T09:45:30.479Z,17.37
2024-03-09T09:48:01.036Z,17.30
2024-03-09T09:50:35.654Z,19.53
2024-03-09T09:53:09.374Z,13.80
2024-03-09T09:55:37.927Z,11.93
2024-03-09T09:58:08.144Z,11.77
2024-03-09T10:00:35.016Z,31.63
2024-03-09T10:03:02.784Z,23.40
2024-03-09T10:05:30.344Z,24.70
2024-03-09T10:08:07.352Z,30.53
2024-03-09T10:10:38.091Z,26.63
2024-03-09T10:13:10.311Z,14.57
2024-03-09T10:15:39.565Z,26.03
2024-03-09T10:18:07.590Z,26.73
2024-03-09T10:20:36.770Z,26.80
2024-03-09T10:23:06.205Z,38.93
2024-03-09T10:25:37.343Z,23.50
2024-03-09T10:28:06.744Z,27.60
2024-03-09T10:30:34.572Z,21.43
2024-03-09T10:33:01.500Z,27.53
2024-03-09T10:35:28.769Z,23.40
2024-03-09T10:37:57.073Z,25.10
2024-03-09T10:40:33.659Z,29.43
2024-03-09T10:43:05.242Z,23.87
2024-03-09T10:45:35.133Z,22.53
2024-03-09T10:48:10.742Z,21.07
2024-03-09T10:50:42.359Z,22.03
2024-03-09T10:53:10.021Z,20.17
2024-03-09T10:56:07.700Z,26.63
2024-03-09T10:58:37.747Z,23.67
2024-03-09T11:01:12.667Z,25.03
2024-03-09T11:03:40.555Z,34.03
2024-03-09T11:06:12.478Z,28.03
2024-03-09T11:08:41.316Z,26.07
2024-03-09T11:11:11.850Z,23.63
2024-03-09T11:13:39.431Z,21.83
2024-03-09T11:16:17.022Z,26.47
2024-03-09T11:18:45.176Z,19.10
2024-03-09T11:21:34.262Z,20.53
2024-03-09T11:24:13.415Z,24.83
2024-03-09T11:26:52.026Z,24.27
2024-03-09T11:29:21.113Z,31.33
2024-03-09T11:31:50.790Z,28.20
2024-03-09T11:34:24.484Z,29.57
2024-03-09T11:36:58.695Z,26.10
2024-03-09T11:39:32.843Z,62.17
2024-03-09T11:42:02.240Z,70.70
2024-03-09T11:44:32.080Z,34.30
2024-03-09T11:46:59.565Z,24.27
2024-03-09T11:49:34.607Z,27.23
2024-03-09T11:52:08.326Z,22.87
2024-03-09T11:54:39.485Z,29.70
2024-03-09T11:57:11.831Z,22.30
2024-03-09T11:59:38.870Z,21.33
2024-03-09T12:02:09.852Z,26.30
2024-03-09T12:04:37.608Z,29.93
2024-03-09T12:07:09.970Z,33.90
2024-03-09T12:09:38.891Z,38.00
2024-03-09T12:12:16.394Z,22.67
2024-03-09T12:14:45.028Z,27.00
2024-03-09T12:17:13.882Z,23.83
2024-03-09T12:19:42.453Z,27.37
2024-03-09T12:22:11.004Z,21.90
2024-03-09T12:24:37.945Z,23.63
2024-03-09T12:27:09.967Z,22.37
2024-03-09T12:29:40.279Z,35.47
2024-03-09T12:32:08.266Z,32.47
2024-03-09T12:34:38.111Z,29.87
2024-03-09T12:37:05.748Z,43.70
2024-03-09T12:39:32.578Z,28.00
2024-03-09T12:42:04.112Z,22.17
2024-03-09T12:44:40.407Z,40.73
2024-03-09T12:47:08.149Z,37.63
2024-03-09T12:49:35.287Z,69.23
2024-03-09T12:52:03.710Z,26.73
2024-03-09T12:54:32.390Z,45.57
2024-03-09T12:57:04.819Z,31.70
2024-03-09T12:59:31.970Z,27.73
2024-03-09T13:02:02.260Z,36.63
2024-03-09T13:04:39.080Z,32.87
2024-03-09T13:07:06.666Z,34.40
2024-03-09T13:09:34.970Z,38.40
2024-03-09T13:12:05.344Z,25.50
2024-03-09T13:14:35.668Z,33.60
2024-03-09T13:17:09.886Z,32.73
2024-03-09T13:19:38.229Z,23.07
2024-03-09T13:22:08.001Z,21.03
2024-03-09T13:24:37.973Z,22.90
2024-03-09T13:27:09.546Z,27.43
2024-03-09T13:29:37.928Z,14.17
2024-03-09T13:32:13.465Z,18.60
2024-03-09T13:34:41.336Z,19.57
2024-03-09T13:37:12.674Z,22.97
2024-03-09T13:39:39.780Z,20.83
2024-03-09T13:42:10.963Z,21.03
2024-03-09T13:44:38.626Z,38.37
2024-03-09T13:47:07.041Z,16.07
2024-03-09T13:49:38.429Z,18.57
2024-03-09T13:52:06.087Z,18.47
2024-03-09T13:54:35.630Z,20.07
2024-03-09T13:57:02.586Z,18.77
2024-03-09T13:59:30.028Z,11.93
2024-03-09T14:01:57.550Z,36.70
2024-03-09T14:04:25.941Z,13.07
2024-03-09T14:07:06.583Z,11.73
2024-03-09T14:09:41.021Z,18.03
2024-03-09T14:12:11.647Z,26.43
2024-03-09T14:14:39.974Z,19.80
2024-03-09T14:17:10.885Z,12.93
2024-03-09T14:19:41.560Z,22.53
2024-03-09T14:22:12.691Z,19.30
2024-03-09T14:24:39.945Z,33.43
2024-03-09T14:27:08.059Z,17.50
2024-03-09T14:29:38.291Z,27.13
2024-03-09T14:32:07.899Z,24.00
2024-03-09T14:34:36.612Z,16.73
2024-03-09T14:37:04.127Z,22.70
2024-03-09T14:39:32.085Z,20.70
2024-03-09T14:41:59.327Z,21.77
2024-03-09T14:44:26.296Z,15.50
2024-03-09T14:46:53.462Z,16.00
2024-03-09T14:49:21.176Z,19.40
2024-03-09T14:51:48.354Z,13.10
2024-03-09T14:54:18.001Z,22.03
2024-03-09T14:56:47.510Z,28.70
2024-03-09T14:59:16.656Z,11.20
2024-03-09T15:01:47.759Z,13.27
2024-03-09T15:04:16.340Z,14.17
2024-03-09T15:06:43.406Z,25.23
2024-03-09T15:09:24.629Z,22.47
2024-03-09T15:11:55.513Z,22.30
2024-03-09T15:14:23.178Z,23.20
2024-03-09T15:16:56.718Z,30.00
2024-03-09T15:19:27.658Z,27.00
2024-03-09T15:21:57.869Z,29.50
2024-03-09T15:24:24.755Z,26.87
2024-03-09T15:26:51.882Z,21.50
2024-03-09T15:29:25.612Z,18.77
2024-03-09T15:32:02.175Z,15.07
2024-03-09T15:34:29.946Z,20.43
2024-03-09T15:36:59.985Z,22.00
2024-03-09T15:39:27.983Z,23.00
2024-03-09T15:41:59.687Z,18.63
2024-03-09T15:44:30.031Z,22.30
2024-03-09T15:47:03.035Z,20.37
2024-03-09T15:49:32.247Z,23.93
2024-03-09T15:52:00.800Z,23.47
2024-03-09T15:54:30.924Z,14.53
2024-03-09T15:56:58.121Z,15.10
2024-03-09T15:59:25.591Z,13.27
2024-03-09T16:01:59.609Z,13.10
2024-03-09T16:04:28.813Z,13.80
2024-03-09T16:06:58.523Z,16.43
2024-03-09T16:09:28.091Z,16.63
2024-03-09T16:11:56.077Z,21.53
2024-03-09T16:14:23.759Z,16.03
2024-03-09T16:16:50.944Z,16.03
2024-03-09T16:19:18.724Z,16.33
2024-03-09T16:21:48.828Z,15.37
2024-03-09T16:24:20.656Z,20.10
2024-03-09T16:26:47.482Z,20.03
2024-03-09T16:29:14.707Z,16.47
2024-03-09T16:31:41.874Z,20.57
2024-03-09T16:34:09.577Z,35.43
2024-03-09T16:36:36.800Z,34.83
2024-03-09T16:39:09.484Z,52.93
2024-03-09T16:41:39.823Z,71.67
2024-03-09T16:44:06.966Z,35.03
2024-03-09T16:46:33.947Z,53.57
2024-03-09T16:49:03.596Z,36.27
2024-03-09T16:51:30.978Z,46.47
2024-03-09T16:53:58.112Z,42.63
2024-03-09T16:56:29.804Z,38.33
2024-03-09T16:58:57.297Z,48.20
2024-03-09T17:01:25.587Z,33.23
2024-03-09T17:03:52.638Z,29.20
2024-03-09T17:06:20.551Z,39.63
2024-03-09T17:08:48.606Z,49.73
2024-03-09T17:11:16.096Z,27.73
2024-03-09T17:13:48.748Z,26.03
2024-03-09T17:16:19.006Z,35.90
2024-03-09T17:18:50.204Z,26.67
2024-03-09T17:21:18.468Z,45.57
2024-03-09T17:23:46.424Z,38.90
2024-03-09T17:26:14.621Z,52.47
2024-03-09T17:28:41.676Z,51.00
2024-03-09T17:31:09.621Z,51.47
2024-03-09T17:33:38.650Z,35.37
2024-03-09T17:36:07.944Z,85.70
2024-03-09T17:38:34.994Z,116.47
2024-03-09T17:41:03.296Z,123.60
2024-03-09T17:43:30.571Z,87.20
2024-03-09T17:45:57.750Z,118.50
2024-03-09T17:48:24.927Z,180.53
2024-03-09T17:50:57.384Z,135.23
2024-03-09T17:53:24.526Z,148.83
2024-03-09T17:55:54.774Z,108.90
2024-03-09T17:58:26.088Z,54.27
2024-03-09T18:00:55.729Z,44.13
2024-03-09T18:03:22.856Z,48.97
2024-03-09T18:05:57.189Z,53.33
2024-03-09T18:08:25.282Z,65.43
2024-03-09T18:10:52.289Z,48.37
2024-03-09T18:13:22.096Z,59.37
2024-03-09T18:15:49.124Z,42.50
2024-03-09T18:21:09.830Z,130.37
2024-03-09T18:23:43.940Z,135.93
2024-03-09T18:26:13.306Z,156.43
2024-03-09T18:28:43.506Z,170.67
2024-03-09T18:31:11.655Z,73.03
2024-03-09T18:33:43.689Z,67.00
2024-03-09T18:36:14.173Z,69.47
2024-03-09T18:38:41.536Z,131.60
2024-03-09T18:41:11.446Z,152.07
2024-03-09T18:43:39.005Z,145.07
2024-03-09T18:46:09.006Z,107.90
2024-03-09T18:48:36.169Z,73.33
2024-03-09T18:51:03.773Z,34.70
2024-03-09T18:53:33.994Z,58.70
2024-03-09T18:56:01.108Z,41.93
2024-03-09T18:58:28.029Z,55.73
2024-03-09T19:00:55.896Z,49.00
2024-03-09T19:03:22.989Z,33.53
2024-03-09T19:05:50.491Z,30.53
2024-03-09T19:08:18.807Z,65.30
2024-03-09T19:10:46.802Z,43.77
2024-03-09T19:13:15.653Z,44.10
2024-03-09T19:15:43.355Z,52.80
2024-03-09T19:18:10.914Z,99.37
2024-03-09T19:20:39.930Z,97.03
2024-03-09T19:23:07.129Z,86.83
2024-03-09T19:25:36.710Z,47.40
2024-03-09T19:28:03.923Z,57.97
2024-03-09T19:30:33.676Z,71.90
2024-03-09T19:33:00.922Z,37.67
2024-03-09T19:35:29.616Z,32.47
2024-03-09T19:37:59.750Z,89.33
2024-03-09T19:40:28.170Z,39.47
2024-03-09T19:42:56.410Z,59.23
2024-03-09T19:45:24.683Z,58.47
2024-03-09T19:47:53.221Z,81.10
2024-03-09T19:50:24.385Z,37.90
2024-03-09T19:52:52.992Z,74.57
2024-03-09T19:55:23.235Z,38.80
2024-03-09T19:57:50.383Z,80.03
2024-03-09T20:00:20.936Z,65.57
2024-03-09T20:02:58.241Z,43.57
2024-03-09T20:05:34.572Z,47.60
2024-03-09T20:08:02.744Z,62.50
2024-03-09T20:10:33.839Z,52.40
2024-03-09T20:13:01.627Z,44.70
2024-03-09T20:15:29.656Z,46.93
2024-03-09T20:18:04.023Z,34.97
2024-03-09T20:20:33.504Z,37.10
2024-03-09T20:23:01.917Z,38.73
2024-03-09T20:25:29.000Z,35.43
2024-03-09T20:27:56.736Z,36.70
2024-03-09T20:30:24.115Z,39.20
2024-03-09T20:32:52.645Z,33.40
2024-03-09T20:35:20.953Z,40.97
2024-03-09T20:37:52.017Z,31.30
2024-03-09T20:40:20.642Z,60.97
2024-03-09T20:42:51.246Z,43.43
2024-03-09T20:45:19.665Z,34.67
2024-03-09T20:47:47.497Z,37.50
2024-03-09T20:50:16.483Z,38.83
2024-03-09T20:52:48.912Z,46.83
2024-03-09T20:55:16.354Z,45.00
2024-03-09T20:57:43.377Z,40.27
2024-03-09T21:00:24.143Z,33.20
2024-03-09T21:02:53.423Z,42.00
2024-03-09T21:05:21.115Z,43.10
2024-03-09T21:07:48.204Z,36.00
2024-03-09T21:10:16.105Z,40.50
2024-03-09T21:12:47.953Z,61.00
2024-03-09T21:15:15.270Z,29.43
2024-03-09T21:17:42.756Z,56.80
2024-03-09T21:20:15.622Z,44.03
2024-03-09T21:22:43.464Z,47.57
2024-03-09T21:25:12.216Z,30.87
2024-03-09T21:27:43.907Z,34.60
2024-03-09T21:30:15.642Z,32.17
2024-03-09T21:32:46.225Z,41.37
2024-03-09T21:35:14.250Z,46.83
2024-03-09T21:37:45.054Z,36.57
2024-03-09T21:40:14.686Z,38.50
2024-03-09T21:42:46.659Z,33.70
2024-03-09T21:45:15.356Z,33.67
2024-03-09T21:47:44.717Z,28.90
2024-03-09T21:50:18.259Z,35.87
2024-03-09T21:52:50.038Z,32.87
2024-03-09T21:55:18.025Z,34.50
2024-03-09T21:57:45.450Z,31.93
2024-03-09T22:00:31.280Z,38.37
2024-03-09T22:03:02.422Z,49.93
2024-03-09T22:05:30.108Z,45.50
2024-03-09T22:07:58.766Z,37.73
2024-03-09T22:10:26.342Z,23.87
2024-03-09T22:12:56.679Z,37.07
2024-03-09T22:15:27.425Z,25.53
2024-03-09T22:17:56.358Z,30.60
2024-03-09T22:20:23.910Z,42.83
2024-03-09T22:22:51.259Z,39.03
2024-03-09T22:25:27.680Z,40.90
2024-03-09T22:27:55.523Z,26.43
2024-03-09T22:30:22.949Z,47.60
2024-03-09T22:32:50.168Z,25.20
2024-03-09T22:35:17.770Z,48.23
2024-03-09T22:37:46.333Z,29.03
2024-03-09T22:40:21.668Z,23.23
2024-03-09T22:42:49.604Z,23.57
2024-03-09T22:45:17.186Z,45.63
2024-03-09T22:47:46.540Z,23.73
2024-03-09T22:50:16.672Z,39.50
2024-03-09T22:52:44.343Z,35.77
2024-03-09T22:55:12.351Z,26.20
2024-03-09T22:57:41.657Z,51.03
2024-03-09T23:00:33.884Z,51.30
2024-03-09T23:03:02.895Z,39.80
2024-03-09T23:05:31.159Z,61.87
2024-03-09T23:07:58.656Z,41.53
2024-03-09T23:10:27.051Z,40.13
2024-03-09T23:12:54.381Z,38.43
2024-03-09T23:15:23.490Z,54.57
2024-03-09T23:17:53.860Z,49.83
2024-03-09T23:20:24.616Z,64.60
2024-03-09T23:22:52.821Z,72.90
2024-03-09T23:25:22.820Z,63.87
2024-03-09T23:27:49.978Z,65.30
2024-03-09T23:30:18.623Z,49.73
2024-03-09T23:32:54.534Z,48.77
2024-03-09T23:35:24.984Z,82.57
2024-03-09T23:37:52.427Z,53.20
2024-03-09T23:40:22.633Z,53.67
2024-03-09T23:42:49.780Z,48.77
2024-03-09T23:45:20.900Z,56.83
2024-03-09T23:47:49.282Z,62.63
2024-03-09T23:50:21.825Z,57.43
2024-03-09T23:52:52.615Z,38.57
2024-03-09T23:55:22.076Z,71.07
2024-03-09T23:57:49.626Z,48.23
